Time;durP1;ratioP1;P1;durP2;ratioP2;P2;SDS_P1;SDS_P2;PMS_P1;PMS_P2;Temp;Humidity;BMP_temperature;BMP_pressure;BME280_temperature;BME280_humidity;BME280_pressure;Samples;Min_cycle;Max_cycle;Signal;HPM_P1;HPM_P2
2021/08/12 00:01:18;;;;;;;24.08;21.77;;;;;;;;;;4976326;28;20053;-63
2021/08/12 00:04:04;;;;;;;18.88;16.95;;;;;;;;;;4976237;28;20057;-63
2021/08/12 00:06:49;;;;;;;17.05;15.35;;;;;;;;;;4975427;28;20051;-63
2021/08/12 00:09:35;;;;;;;20.60;16.27;;;;;;;;;;4976401;28;20050;-63
2021/08/12 00:12:22;;;;;;;18.42;16.52;;;;;;;;;;4976215;28;20058;-63
2021/08/12 00:15:07;;;;;;;14.10;12.35;;;;;;;;;;4974894;28;20070;-63
2021/08/12 00:17:52;;;;;;;12.20;11.05;;;;;;;;;;4975995;28;20043;-63
2021/08/12 00:20:38;;;;;;;10.88;9.13;;;;;;;;;;4974734;28;20050;-63
2021/08/12 00:23:25;;;;;;;20.30;18.17;;;;;;;;;;4977712;28;20053;-63
2021/08/12 00:26:11;;;;;;;20.80;18.73;;;;;;;;;;4974004;28;20047;-64
2021/08/12 00:28:56;;;;;;;20.88;18.95;;;;;;;;;;4975960;28;20051;-63
2021/08/12 00:31:43;;;;;;;20.08;18.35;;;;;;;;;;4974753;28;20476;-63
2021/08/12 00:34:28;;;;;;;16.73;15.23;;;;;;;;;;4959374;28;20050;-63
2021/08/12 00:37:14;;;;;;;14.15;12.95;;;;;;;;;;4975256;28;20043;-63
2021/08/12 00:40:00;;;;;;;11.18;10.07;;;;;;;;;;4987109;28;20043;-63
2021/08/12 00:42:45;;;;;;;65.05;10.57;;;;;;;;;;4988229;28;20140;-63
2021/08/12 00:45:31;;;;;;;20.58;9.32;;;;;;;;;;4987376;28;20105;-63
2021/08/12 00:48:17;;;;;;;13.50;12.43;;;;;;;;;;4988284;28;20051;-63
2021/08/12 00:51:02;;;;;;;18.50;16.77;;;;;;;;;;4975344;28;20051;-63
2021/08/12 00:53:49;;;;;;;13.52;12.48;;;;;;;;;;4975262;28;20047;-63
2021/08/12 00:56:37;;;;;;;12.05;11.05;;;;;;;;;;4987434;28;20046;-63
2021/08/12 00:59:22;;;;;;;18.33;16.65;;;;;;;;;;4974247;28;20125;-63
2021/08/12 01:02:08;;;;;;;26.55;22.85;;;;;;;;;;4975161;28;20055;-63
2021/08/12 01:04:54;;;;;;;122.43;26.42;;;;;;;;;;4973957;28;20413;-63
2021/08/12 01:07:53;;;;;;;16.48;14.80;;;;;;;;;;4954826;29;20055;-63
2021/08/12 01:10:46;;;;;;;17.83;16.23;;;;;;;;;;4954797;29;20094;-63
2021/08/12 01:13:41;;;;;;;16.58;15.05;;;;;;;;;;4941502;29;20189;-63
2021/08/12 01:16:29;;;;;;;25.63;13.20;;;;;;;;;;4962982;28;20128;-63
2021/08/12 01:19:34;;;;;;;14.40;13.15;;;;;;;;;;4973869;28;20050;-63
2021/08/12 01:22:20;;;;;;;13.57;12.48;;;;;;;;;;4973785;28;20114;-63
2021/08/12 01:25:07;;;;;;;12.27;11.18;;;;;;;;;;4973602;28;20068;-63
2021/08/12 01:27:54;;;;;;;16.52;15.02;;;;;;;;;;4959125;28;20065;-63
2021/08/12 01:30:45;;;;;;;17.25;15.55;;;;;;;;;;4973873;28;20061;-63
2021/08/12 01:33:35;;;;;;;13.60;12.40;;;;;;;;;;4973275;28;20072;-63
2021/08/12 01:36:20;;;;;;;16.90;15.43;;;;;;;;;;4973235;28;20046;-63
2021/08/12 01:39:06;;;;;;;15.98;14.52;;;;;;;;;;4973717;28;20043;-63
2021/08/12 01:41:51;;;;;;;15.38;14.07;;;;;;;;;;4973661;28;20047;-63
2021/08/12 01:44:37;;;;;;;21.30;19.27;;;;;;;;;;4960966;28;20141;-63
2021/08/12 01:47:27;;;;;;;19.70;17.83;;;;;;;;;;4975001;28;20101;-63
2021/08/12 01:50:14;;;;;;;17.13;15.43;;;;;;;;;;4988212;28;20077;-63
2021/08/12 01:52:59;;;;;;;18.33;16.73;;;;;;;;;;4974568;28;20199;-63
2021/08/12 01:55:47;;;;;;;13.48;12.38;;;;;;;;;;4960977;28;20047;-63
2021/08/12 01:58:33;;;;;;;11.65;10.55;;;;;;;;;;4988033;28;20051;-63
2021/08/12 02:01:19;;;;;;;20.80;18.92;;;;;;;;;;4973542;28;20133;-63
2021/08/12 02:04:05;;;;;;;21.20;19.30;;;;;;;;;;4974073;28;20055;-63
2021/08/12 02:06:51;;;;;;;15.98;14.68;;;;;;;;;;4973616;28;20070;-63
2021/08/12 02:09:38;;;;;;;15.93;14.60;;;;;;;;;;4975180;28;20054;-63
2021/08/12 02:12:24;;;;;;;18.35;16.50;;;;;;;;;;4974539;28;20097;-63
2021/08/12 02:15:09;;;;;;;18.13;16.58;;;;;;;;;;4973636;28;20070;-62
2021/08/12 02:17:56;;;;;;;21.00;19.17;;;;;;;;;;4972526;28;20074;-62
2021/08/12 02:20:42;;;;;;;25.05;20.25;;;;;;;;;;4986549;28;20062;-63
2021/08/12 02:23:35;;;;;;;24.40;19.38;;;;;;;;;;4974845;28;20058;-63
2021/08/12 02:26:20;;;;;;;23.40;21.20;;;;;;;;;;4959897;28;20050;-63
2021/08/12 02:29:07;;;;;;;21.83;19.90;;;;;;;;;;4971888;28;20145;-62
2021/08/12 02:31:54;;;;;;;15.85;14.48;;;;;;;;;;4960173;28;20054;-63
2021/08/12 02:34:40;;;;;;;18.05;16.38;;;;;;;;;;4959714;28;20054;-63
2021/08/12 02:37:26;;;;;;;20.33;18.50;;;;;;;;;;4972581;28;20134;-63
2021/08/12 02:40:11;;;;;;;18.73;16.95;;;;;;;;;;4972899;28;20046;-62
2021/08/12 02:42:57;;;;;;;16.92;15.35;;;;;;;;;;4986378;28;20621;-63
2021/08/12 02:45:42;;;;;;;17.80;15.98;;;;;;;;;;4973675;28;20061;-62
2021/08/12 02:48:28;;;;;;;18.67;17.08;;;;;;;;;;4972208;28;20556;-63
2021/08/12 02:51:14;;;;;;;24.63;22.27;;;;;;;;;;4986927;28;20512;-63
2021/08/12 02:54:00;;;;;;;125.00;25.40;;;;;;;;;;5000754;28;20057;-63
2021/08/12 02:56:45;;;;;;;96.95;23.80;;;;;;;;;;4986658;28;20046;-62
2021/08/12 02:59:32;;;;;;;31.85;16.23;;;;;;;;;;4986525;28;20042;-63
2021/08/12 03:02:17;;;;;;;14.95;13.02;;;;;;;;;;4973928;28;20058;-63
2021/08/12 03:05:04;;;;;;;13.50;9.15;;;;;;;;;;4986271;28;20050;-62
2021/08/12 03:07:49;;;;;;;16.52;15.02;;;;;;;;;;4985352;28;20453;-62
2021/08/12 03:10:35;;;;;;;23.35;21.13;;;;;;;;;;4959671;28;20133;-62
2021/08/12 03:13:21;;;;;;;16.90;15.38;;;;;;;;;;4972627;28;20510;-63
2021/08/12 03:16:06;;;;;;;18.20;16.60;;;;;;;;;;4972660;28;20070;-62
2021/08/12 03:18:53;;;;;;;16.80;15.23;;;;;;;;;;4972188;28;20509;-63
2021/08/12 03:21:38;;;;;;;22.92;20.80;;;;;;;;;;4959385;28;20433;-63
2021/08/12 03:24:24;;;;;;;22.15;20.25;;;;;;;;;;4959355;28;20054;-63
2021/08/12 03:27:13;;;;;;;23.30;21.13;;;;;;;;;;4972846;28;20409;-63
2021/08/12 03:29:58;;;;;;;23.83;21.63;;;;;;;;;;4972534;28;20043;-62
2021/08/12 03:32:44;;;;;;;24.63;21.40;;;;;;;;;;4974812;28;20142;-63
2021/08/12 03:35:30;;;;;;;22.05;20.05;;;;;;;;;;4986861;28;20133;-63
2021/08/12 03:38:16;;;;;;;29.42;26.48;;;;;;;;;;4988071;28;20045;-63
2021/08/12 03:41:02;;;;;;;32.67;23.95;;;;;;;;;;4974803;28;20054;-62
2021/08/12 03:43:47;;;;;;;20.77;18.65;;;;;;;;;;4972629;28;20064;-63
2021/08/12 03:46:32;;;;;;;26.48;15.95;;;;;;;;;;4974178;28;20138;-63
2021/08/12 03:49:18;;;;;;;17.23;15.52;;;;;;;;;;4987154;28;20079;-63
2021/08/12 03:52:04;;;;;;;18.38;16.63;;;;;;;;;;4973185;28;20058;-62
2021/08/12 03:54:51;;;;;;;19.88;17.92;;;;;;;;;;4987192;28;20057;-62
2021/08/12 03:57:41;;;;;;;18.00;16.40;;;;;;;;;;4986742;28;20047;-63
2021/08/12 04:00:27;;;;;;;15.30;14.05;;;;;;;;;;4974370;28;20074;-63
2021/08/12 04:03:12;;;;;;;29.10;25.77;;;;;;;;;;4974756;28;20514;-63
2021/08/12 04:05:57;;;;;;;34.70;30.15;;;;;;;;;;4974296;28;20043;-61
2021/08/12 04:08:43;;;;;;;22.45;20.35;;;;;;;;;;4973330;28;20057;-63
2021/08/12 04:11:28;;;;;;;22.23;20.13;;;;;;;;;;4976917;28;20093;-63
2021/08/12 04:14:14;;;;;;;58.25;26.77;;;;;;;;;;4977375;28;20505;-63
2021/08/12 04:16:59;;;;;;;90.20;28.08;;;;;;;;;;4978654;28;20078;-63
2021/08/12 04:19:45;;;;;;;78.65;23.58;;;;;;;;;;4989972;28;20412;-63
2021/08/12 04:22:31;;;;;;;20.05;17.95;;;;;;;;;;4976692;28;20185;-63
2021/08/12 04:25:17;;;;;;;22.75;20.55;;;;;;;;;;4975756;28;20054;-63
2021/08/12 04:28:03;;;;;;;41.92;35.97;;;;;;;;;;4975211;28;20054;-63
2021/08/12 04:30:49;;;;;;;53.10;41.28;;;;;;;;;;4975292;28;20457;-63
2021/08/12 04:33:36;;;;;;;34.58;30.80;;;;;;;;;;4976598;28;20101;-63
2021/08/12 04:36:21;;;;;;;42.33;37.30;;;;;;;;;;4976569;28;20083;-63
2021/08/12 04:39:07;;;;;;;40.33;33.38;;;;;;;;;;4975777;28;20074;-63
2021/08/12 04:41:52;;;;;;;39.30;34.53;;;;;;;;;;4976015;28;20042;-63
2021/08/12 04:44:38;;;;;;;43.15;37.78;;;;;;;;;;4975620;28;20122;-63
2021/08/12 04:47:23;;;;;;;45.83;39.25;;;;;;;;;;4975144;28;20118;-63
2021/08/12 04:50:10;;;;;;;34.55;30.85;;;;;;;;;;4988642;28;20058;-63
2021/08/12 04:52:57;;;;;;;46.20;39.78;;;;;;;;;;4989128;28;20142;-63
2021/08/12 04:55:43;;;;;;;49.28;40.13;;;;;;;;;;4987237;28;20117;-63
2021/08/12 04:58:28;;;;;;;52.08;36.92;;;;;;;;;;4975963;28;20051;-63
2021/08/12 05:01:13;;;;;;;43.30;35.55;;;;;;;;;;4974737;28;20066;-63
2021/08/12 05:03:59;;;;;;;38.28;34.10;;;;;;;;;;4974432;28;20051;-63
2021/08/12 05:06:46;;;;;;;39.22;34.17;;;;;;;;;;4973491;28;20042;-63
2021/08/12 05:09:31;;;;;;;37.45;33.20;;;;;;;;;;4975630;28;20061;-63
2021/08/12 05:12:21;;;;;;;36.45;32.70;;;;;;;;;;4988401;28;20481;-63
2021/08/12 05:15:07;;;;;;;33.47;29.85;;;;;;;;;;4987994;28;20053;-63
2021/08/12 05:17:53;;;;;;;35.30;31.60;;;;;;;;;;4987135;28;20050;-63
2021/08/12 05:20:38;;;;;;;36.75;32.83;;;;;;;;;;4974582;28;20174;-63
2021/08/12 05:23:25;;;;;;;28.83;26.00;;;;;;;;;;4973346;28;20047;-63
2021/08/12 05:26:11;;;;;;;32.63;29.33;;;;;;;;;;4975328;28;20049;-63
2021/08/12 05:28:57;;;;;;;34.75;31.10;;;;;;;;;;4973432;28;20047;-63
2021/08/12 05:31:44;;;;;;;31.63;28.48;;;;;;;;;;4973434;28;20417;-63
2021/08/12 05:34:29;;;;;;;33.83;29.85;;;;;;;;;;4987579;28;20047;-63
2021/08/12 05:37:15;;;;;;;33.78;30.42;;;;;;;;;;4986975;28;20055;-63
2021/08/12 05:40:01;;;;;;;28.92;26.08;;;;;;;;;;4972508;28;20054;-63
2021/08/12 05:42:48;;;;;;;34.90;29.95;;;;;;;;;;4972951;28;20045;-63
2021/08/12 05:45:33;;;;;;;39.95;32.88;;;;;;;;;;4987714;28;20051;-63
2021/08/12 05:48:19;;;;;;;36.58;32.65;;;;;;;;;;4971225;28;20057;-63
2021/08/12 05:51:05;;;;;;;37.42;32.80;;;;;;;;;;4973756;28;20047;-63
2021/08/12 05:53:50;;;;;;;32.90;29.45;;;;;;;;;;4971911;28;20054;-63
2021/08/12 05:56:36;;;;;;;31.27;28.13;;;;;;;;;;4955918;28;20515;-64
2021/08/12 05:59:22;;;;;;;30.35;27.35;;;;;;;;;;4967599;28;20050;-63
2021/08/12 06:02:09;;;;;;;33.45;29.52;;;;;;;;;;4985998;28;20493;-63
2021/08/12 06:04:58;;;;;;;36.63;32.75;;;;;;;;;;4974122;28;20182;-63
2021/08/12 06:07:47;;;;;;;40.25;35.90;;;;;;;;;;4974212;28;20055;-63
2021/08/12 06:10:32;;;;;;;42.40;37.78;;;;;;;;;;4973681;28;20051;-63
2021/08/12 06:13:18;;;;;;;42.90;36.63;;;;;;;;;;4974508;28;20054;-63
2021/08/12 06:16:06;;;;;;;44.13;38.78;;;;;;;;;;4972916;28;20058;-63
2021/08/12 06:18:52;;;;;;;45.78;37.40;;;;;;;;;;4973491;28;20054;-63
2021/08/12 06:21:38;;;;;;;54.85;42.92;;;;;;;;;;4972734;28;20476;-63
2021/08/12 06:24:24;;;;;;;54.85;44.65;;;;;;;;;;4972478;28;20497;-63
2021/08/12 06:27:10;;;;;;;56.80;44.80;;;;;;;;;;4972840;28;20050;-63
2021/08/12 06:29:55;;;;;;;55.85;45.95;;;;;;;;;;4971947;28;20057;-63
2021/08/12 06:32:42;;;;;;;54.28;44.70;;;;;;;;;;4972305;28;20042;-63
2021/08/12 06:35:31;;;;;;;62.95;49.10;;;;;;;;;;4972402;28;20515;-63
2021/08/12 06:38:17;;;;;;;57.38;46.03;;;;;;;;;;4986356;28;20050;-63
2021/08/12 06:41:02;;;;;;;54.13;43.20;;;;;;;;;;4971581;28;20520;-63
2021/08/12 06:43:53;;;;;;;49.45;43.28;;;;;;;;;;4972463;28;20429;-63
2021/08/12 06:46:38;;;;;;;50.80;42.10;;;;;;;;;;4972540;28;20070;-63
2021/08/12 06:49:27;;;;;;;49.90;41.97;;;;;;;;;;4971538;28;20046;-63
2021/08/12 06:52:12;;;;;;;45.63;40.08;;;;;;;;;;4954113;28;20054;-63
2021/08/12 06:54:58;;;;;;;42.33;34.85;;;;;;;;;;4952986;29;20098;-63
2021/08/12 06:57:44;;;;;;;36.58;29.65;;;;;;;;;;4952893;29;20051;-63
2021/08/12 07:00:30;;;;;;;31.88;27.67;;;;;;;;;;4959237;28;20150;-63
2021/08/12 07:03:16;;;;;;;32.03;28.65;;;;;;;;;;4986224;28;20051;-63
2021/08/12 07:06:02;;;;;;;38.83;30.42;;;;;;;;;;4985870;28;20047;-63
2021/08/12 07:08:48;;;;;;;36.35;30.05;;;;;;;;;;4986149;28;20164;-63
2021/08/12 07:11:35;;;;;;;30.75;26.20;;;;;;;;;;4998559;28;20520;-63
2021/08/12 07:14:20;;;;;;;35.15;28.75;;;;;;;;;;4973020;28;20098;-63
2021/08/12 07:17:06;;;;;;;27.15;24.23;;;;;;;;;;4985879;28;20054;-64
2021/08/12 07:19:52;;;;;;;27.88;24.98;;;;;;;;;;4973156;28;20049;-63
2021/08/12 07:22:38;;;;;;;27.50;24.38;;;;;;;;;;4984929;28;20118;-63
2021/08/12 07:25:25;;;;;;;28.23;25.25;;;;;;;;;;4972047;28;20058;-63
2021/08/12 07:28:12;;;;;;;27.17;24.33;;;;;;;;;;4972040;28;20047;-63
2021/08/12 07:30:58;;;;;;;30.17;26.20;;;;;;;;;;4984814;28;20050;-63
2021/08/12 07:33:44;;;;;;;27.80;24.83;;;;;;;;;;4970957;28;20069;-63
2021/08/12 07:36:30;;;;;;;22.85;20.52;;;;;;;;;;4973078;28;20061;-63
2021/08/12 07:39:15;;;;;;;23.38;20.92;;;;;;;;;;4971856;28;20106;-63
2021/08/12 07:42:02;;;;;;;22.48;19.05;;;;;;;;;;4970635;28;20560;-63
2021/08/12 07:44:47;;;;;;;19.80;17.75;;;;;;;;;;4972738;28;20074;-63
2021/08/12 07:47:32;;;;;;;23.80;18.23;;;;;;;;;;4975558;28;20061;-63
2021/08/12 07:50:18;;;;;;;18.75;16.75;;;;;;;;;;4976481;28;20614;-63
2021/08/12 07:53:03;;;;;;;19.27;16.48;;;;;;;;;;4975673;28;20139;-63
2021/08/12 07:55:49;;;;;;;19.02;17.00;;;;;;;;;;4976338;28;20398;-63
2021/08/12 07:58:34;;;;;;;17.75;15.98;;;;;;;;;;4976502;28;20050;-63
2021/08/12 08:01:20;;;;;;;17.00;15.20;;;;;;;;;;4976240;28;20439;-63
2021/08/12 08:04:05;;;;;;;18.48;15.60;;;;;;;;;;4975433;28;20053;-63
2021/08/12 08:06:50;;;;;;;17.50;15.73;;;;;;;;;;4976316;28;20046;-63
2021/08/12 08:09:36;;;;;;;16.45;14.73;;;;;;;;;;4976219;28;20050;-63
2021/08/12 08:12:21;;;;;;;16.77;15.05;;;;;;;;;;4975978;28;20108;-63
2021/08/12 08:15:07;;;;;;;15.95;13.50;;;;;;;;;;4976170;28;20536;-63
2021/08/12 08:17:52;;;;;;;16.85;15.15;;;;;;;;;;4975911;28;20523;-63
2021/08/12 08:20:37;;;;;;;16.27;14.05;;;;;;;;;;4976069;28;20051;-63
2021/08/12 08:23:23;;;;;;;16.00;12.68;;;;;;;;;;4975380;28;20124;-64
2021/08/12 08:26:08;;;;;;;12.98;10.68;;;;;;;;;;4975806;28;20062;-63
2021/08/12 08:28:54;;;;;;;13.60;11.15;;;;;;;;;;4975950;28;20058;-64
2021/08/12 08:31:42;;;;;;;12.80;10.88;;;;;;;;;;4975841;28;20057;-64
2021/08/12 08:34:27;;;;;;;11.82;9.98;;;;;;;;;;4974837;28;20175;-64
2021/08/12 08:37:13;;;;;;;13.73;11.30;;;;;;;;;;4975660;28;20182;-64
2021/08/12 08:39:58;;;;;;;11.52;10.32;;;;;;;;;;4975860;28;20065;-64
2021/08/12 08:42:45;;;;;;;20.63;10.82;;;;;;;;;;4975703;28;20560;-64
2021/08/12 08:45:31;;;;;;;13.73;11.38;;;;;;;;;;4974696;28;20509;-64
2021/08/12 08:48:17;;;;;;;11.40;9.95;;;;;;;;;;4975724;28;20057;-64
2021/08/12 08:51:02;;;;;;;12.73;9.80;;;;;;;;;;4975448;28;20121;-64
2021/08/12 08:53:48;;;;;;;9.60;8.63;;;;;;;;;;4974432;28;20429;-64
2021/08/12 08:56:33;;;;;;;10.90;9.48;;;;;;;;;;4975127;28;20086;-64
2021/08/12 08:59:19;;;;;;;11.18;9.95;;;;;;;;;;4975523;28;20077;-64
2021/08/12 09:02:05;;;;;;;11.70;10.32;;;;;;;;;;4975124;28;20049;-64
2021/08/12 09:04:51;;;;;;;12.93;11.60;;;;;;;;;;4974369;28;20046;-64
2021/08/12 09:07:36;;;;;;;29.98;13.40;;;;;;;;;;4975150;28;20531;-64
2021/08/12 09:10:21;;;;;;;14.48;10.88;;;;;;;;;;4974281;28;20051;-64
2021/08/12 09:13:08;;;;;;;12.07;10.77;;;;;;;;;;4974956;28;20051;-64
2021/08/12 09:15:53;;;;;;;11.02;9.80;;;;;;;;;;4974424;28;20063;-64
2021/08/12 09:18:38;;;;;;;12.07;10.13;;;;;;;;;;4975000;28;20074;-64
2021/08/12 09:21:24;;;;;;;13.05;10.07;;;;;;;;;;4974784;28;20050;-64
2021/08/12 09:24:09;;;;;;;13.48;11.00;;;;;;;;;;4974651;28;20409;-64
2021/08/12 09:26:54;;;;;;;10.73;9.63;;;;;;;;;;4974077;28;20047;-64
2021/08/12 09:29:40;;;;;;;12.20;10.18;;;;;;;;;;4974893;28;20051;-64
2021/08/12 09:32:25;;;;;;;12.32;11.02;;;;;;;;;;4974988;28;20042;-64
2021/08/12 09:35:11;;;;;;;15.18;11.10;;;;;;;;;;4973758;28;20405;-64
2021/08/12 09:38:09;;;;;;;13.82;10.27;;;;;;;;;;4974547;28;20146;-64
2021/08/12 09:40:56;;;;;;;11.02;9.68;;;;;;;;;;4974490;28;20460;-64
2021/08/12 09:43:42;;;;;;;14.40;8.43;;;;;;;;;;4974330;28;20046;-64
2021/08/12 09:46:27;;;;;;;10.75;8.23;;;;;;;;;;4973872;28;20410;-64
2021/08/12 09:49:16;;;;;;;10.77;8.75;;;;;;;;;;4974685;28;20059;-64
2021/08/12 09:52:15;;;;;;;9.38;7.97;;;;;;;;;;4973410;28;20101;-64
2021/08/12 09:55:11;;;;;;;10.45;7.13;;;;;;;;;;4974232;28;20047;-64
2021/08/12 09:58:07;;;;;;;10.60;6.75;;;;;;;;;;4974273;28;20567;-64
2021/08/12 10:00:52;;;;;;;7.60;6.82;;;;;;;;;;4999576;28;20513;-64
2021/08/12 10:03:40;;;;;;;15.32;9.10;;;;;;;;;;4986320;28;20043;-65
2021/08/12 10:06:27;;;;;;;10.68;9.13;;;;;;;;;;4974462;28;20149;-64
2021/08/12 10:09:16;;;;;;;11.90;7.80;;;;;;;;;;4973709;28;20250;-64
2021/08/12 10:12:02;;;;;;;10.20;6.38;;;;;;;;;;4973570;28;20069;-64
2021/08/12 10:14:47;;;;;;;6.72;5.65;;;;;;;;;;4974210;28;20061;-64
2021/08/12 10:17:33;;;;;;;9.63;6.18;;;;;;;;;;4974531;28;20043;-64
2021/08/12 10:20:22;;;;;;;7.15;5.40;;;;;;;;;;4974184;28;20053;-64
2021/08/12 10:23:07;;;;;;;12.32;7.22;;;;;;;;;;4973758;28;20046;-64
2021/08/12 10:25:58;;;;;;;13.68;7.15;;;;;;;;;;4973198;28;20165;-64
2021/08/12 10:28:43;;;;;;;9.05;7.32;;;;;;;;;;4973929;28;20220;-64
2021/08/12 10:31:29;;;;;;;9.93;8.30;;;;;;;;;;4973110;28;20047;-64
2021/08/12 10:34:14;;;;;;;12.68;8.88;;;;;;;;;;4972962;28;20178;-64
2021/08/12 10:37:00;;;;;;;8.27;6.43;;;;;;;;;;4973879;28;20057;-64
2021/08/12 10:39:45;;;;;;;8.50;6.60;;;;;;;;;;4972750;28;20043;-64
2021/08/12 10:42:30;;;;;;;8.88;7.97;;;;;;;;;;4971644;28;20448;-64
2021/08/12 10:45:18;;;;;;;9.40;8.38;;;;;;;;;;4972795;28;20049;-65
2021/08/12 10:48:04;;;;;;;10.63;7.95;;;;;;;;;;4972801;28;20064;-64
2021/08/12 10:51:02;;;;;;;9.13;7.32;;;;;;;;;;4972358;28;20050;-65
2021/08/12 10:54:08;;;;;;;7.80;5.97;;;;;;;;;;4973325;28;20057;-65
2021/08/12 10:57:13;;;;;;;8.13;6.97;;;;;;;;;;4973347;28;20130;-64
2021/08/12 10:59:58;;;;;;;7.57;6.45;;;;;;;;;;4973262;28;20047;-64
2021/08/12 11:02:44;;;;;;;9.43;6.28;;;;;;;;;;4972506;28;20095;-64
2021/08/12 11:05:50;;;;;;;10.35;6.72;;;;;;;;;;4971897;28;20513;-64
2021/08/12 11:09:07;;;;;;;7.63;6.30;;;;;;;;;;4973185;28;20054;-64
2021/08/12 11:11:54;;;;;;;8.55;5.53;;;;;;;;;;4970922;28;20133;-64
2021/08/12 11:14:46;;;;;;;5.47;4.93;;;;;;;;;;4972363;28;20057;-64
2021/08/12 11:17:51;;;;;;;5.95;5.35;;;;;;;;;;4972201;28;20058;-64
2021/08/12 11:20:38;;;;;;;8.25;5.35;;;;;;;;;;4974647;28;20049;-65
2021/08/12 11:23:23;;;;;;;6.22;5.28;;;;;;;;;;4977137;28;20421;-64
2021/08/12 11:26:08;;;;;;;7.30;5.75;;;;;;;;;;4976221;28;20047;-64
2021/08/12 11:28:55;;;;;;;8.13;6.03;;;;;;;;;;4976944;28;20070;-64
2021/08/12 11:31:41;;;;;;;11.32;4.85;;;;;;;;;;4989740;28;20047;-64
2021/08/12 11:34:26;;;;;;;6.88;4.93;;;;;;;;;;4976632;28;20142;-64
2021/08/12 11:37:14;;;;;;;6.97;4.97;;;;;;;;;;4976065;28;20050;-64
2021/08/12 11:40:02;;;;;;;7.15;5.13;;;;;;;;;;4976819;28;20456;-64
2021/08/12 11:42:47;;;;;;;6.10;4.68;;;;;;;;;;4976776;28;20049;-65
2021/08/12 11:45:33;;;;;;;6.38;4.75;;;;;;;;;;4956392;29;20058;-64
2021/08/12 11:48:18;;;;;;;6.65;4.70;;;;;;;;;;4956357;29;20054;-64
2021/08/12 11:51:03;;;;;;;5.53;4.35;;;;;;;;;;4957313;28;20180;-64
2021/08/12 11:53:50;;;;;;;9.50;6.53;;;;;;;;;;4961495;28;20058;-64
2021/08/12 11:56:37;;;;;;;8.75;6.20;;;;;;;;;;4976431;28;20054;-64
2021/08/12 11:59:25;;;;;;;8.43;6.13;;;;;;;;;;4976448;28;20050;-65
2021/08/12 12:02:10;;;;;;;7.32;5.75;;;;;;;;;;4976328;28;20063;-65
2021/08/12 12:04:56;;;;;;;9.10;5.63;;;;;;;;;;4975025;28;20412;-64
2021/08/12 12:07:44;;;;;;;7.30;6.45;;;;;;;;;;4976490;28;20496;-64
2021/08/12 12:10:30;;;;;;;9.32;6.07;;;;;;;;;;4976499;28;20152;-64
2021/08/12 12:13:16;;;;;;;8.52;6.43;;;;;;;;;;4976195;28;20057;-64
2021/08/12 12:16:01;;;;;;;9.57;6.28;;;;;;;;;;4975081;28;20039;-65
2021/08/12 12:18:46;;;;;;;9.23;6.53;;;;;;;;;;4976105;28;20141;-64
2021/08/12 12:21:35;;;;;;;8.35;6.45;;;;;;;;;;4975020;28;20057;-65
2021/08/12 12:24:20;;;;;;;9.00;7.25;;;;;;;;;;4974757;28;20713;-65
2021/08/12 12:27:06;;;;;;;8.35;6.40;;;;;;;;;;4976237;28;20170;-64
2021/08/12 12:29:51;;;;;;;7.45;6.65;;;;;;;;;;4975904;28;20516;-64
2021/08/12 12:32:37;;;;;;;8.60;7.63;;;;;;;;;;4975259;28;20495;-64
2021/08/12 12:35:23;;;;;;;9.32;7.13;;;;;;;;;;4974807;28;20057;-64
2021/08/12 12:38:09;;;;;;;8.57;6.95;;;;;;;;;;4975730;28;20440;-64
2021/08/12 12:40:54;;;;;;;8.65;6.28;;;;;;;;;;4975658;28;20424;-64
2021/08/12 12:43:39;;;;;;;8.05;5.60;;;;;;;;;;4975347;28;20054;-64
2021/08/12 12:46:31;;;;;;;8.48;5.80;;;;;;;;;;4974495;28;20039;-64
2021/08/12 12:49:26;;;;;;;9.60;5.93;;;;;;;;;;4975503;28;20445;-64
2021/08/12 12:52:11;;;;;;;11.57;6.60;;;;;;;;;;4975432;28;20101;-64
2021/08/12 12:54:58;;;;;;;7.32;6.32;;;;;;;;;;4975329;28;20102;-65
2021/08/12 12:57:45;;;;;;;7.97;5.85;;;;;;;;;;4975079;28;20422;-64
2021/08/12 13:00:32;;;;;;;6.93;5.80;;;;;;;;;;4975193;28;20512;-65
2021/08/12 13:03:17;;;;;;;6.93;6.22;;;;;;;;;;4975446;28;20050;-64
2021/08/12 13:06:05;;;;;;;9.45;6.32;;;;;;;;;;4974594;28;20066;-64
2021/08/12 13:08:50;;;;;;;9.18;6.40;;;;;;;;;;4975418;28;20054;-65
2021/08/12 13:11:35;;;;;;;7.82;6.30;;;;;;;;;;4975228;28;20101;-65
2021/08/12 13:14:21;;;;;;;8.77;5.93;;;;;;;;;;4974855;28;20457;-65
2021/08/12 13:17:06;;;;;;;6.80;6.10;;;;;;;;;;4974265;28;20541;-64
2021/08/12 13:19:56;;;;;;;7.82;5.53;;;;;;;;;;4975252;28;20133;-65
2021/08/12 13:22:41;;;;;;;7.28;5.60;;;;;;;;;;5001242;28;20050;-65
2021/08/12 13:25:27;;;;;;;6.82;5.70;;;;;;;;;;4974719;28;20050;-65
2021/08/12 13:28:12;;;;;;;7.28;4.90;;;;;;;;;;4974288;28;20054;-65
2021/08/12 13:30:57;;;;;;;7.57;5.90;;;;;;;;;;4974799;28;20062;-64
2021/08/12 13:33:43;;;;;;;7.45;5.65;;;;;;;;;;4973733;28;20059;-65
2021/08/12 13:36:28;;;;;;;7.25;5.55;;;;;;;;;;4974723;28;20121;-65
2021/08/12 13:39:14;;;;;;;7.97;5.70;;;;;;;;;;4973766;28;20189;-65
2021/08/12 13:42:02;;;;;;;8.07;6.05;;;;;;;;;;4974566;28;20137;-65
2021/08/12 13:44:48;;;;;;;7.97;6.07;;;;;;;;;;4974060;28;20395;-64
2021/08/12 13:47:33;;;;;;;6.05;5.45;;;;;;;;;;4973853;28;20062;-64
2021/08/12 13:50:18;;;;;;;7.00;4.85;;;;;;;;;;4973925;28;20077;-65
2021/08/12 13:53:04;;;;;;;7.30;5.70;;;;;;;;;;4974553;28;20054;-65
2021/08/12 13:55:49;;;;;;;7.30;5.97;;;;;;;;;;4974226;28;20058;-65
2021/08/12 13:58:34;;;;;;;5.90;5.25;;;;;;;;;;4973382;28;20053;-65
2021/08/12 14:01:20;;;;;;;10.18;6.22;;;;;;;;;;4974026;28;20058;-64
2021/08/12 14:04:05;;;;;;;8.63;5.97;;;;;;;;;;4959591;28;20047;-64
2021/08/12 14:06:50;;;;;;;7.72;5.85;;;;;;;;;;4974128;28;20046;-64
2021/08/12 14:09:36;;;;;;;9.55;6.10;;;;;;;;;;4973588;28;20062;-65
2021/08/12 14:12:21;;;;;;;5.50;5.00;;;;;;;;;;4974180;28;20085;-65
2021/08/12 14:15:06;;;;;;;8.80;4.63;;;;;;;;;;4973888;28;20100;-65
2021/08/12 14:17:52;;;;;;;7.40;5.45;;;;;;;;;;4974144;28;20425;-65
2021/08/12 14:20:37;;;;;;;6.75;4.63;;;;;;;;;;4972768;28;20532;-65
2021/08/12 14:23:23;;;;;;;5.45;4.38;;;;;;;;;;4974020;28;20062;-65
2021/08/12 14:26:08;;;;;;;5.85;4.40;;;;;;;;;;4973712;28;20621;-65
2021/08/12 14:28:54;;;;;;;6.53;4.85;;;;;;;;;;4973055;28;20054;-65
2021/08/12 14:31:39;;;;;;;6.57;5.20;;;;;;;;;;4972991;28;20054;-65
2021/08/12 14:34:25;;;;;;;7.68;4.80;;;;;;;;;;4974042;28;20050;-65
2021/08/12 14:37:10;;;;;;;15.50;5.40;;;;;;;;;;4973640;28;20511;-65
2021/08/12 14:39:56;;;;;;;6.82;5.45;;;;;;;;;;4972705;28;20049;-65
2021/08/12 14:42:41;;;;;;;8.15;6.20;;;;;;;;;;4973533;28;20049;-65
2021/08/12 14:45:26;;;;;;;8.20;6.20;;;;;;;;;;4972820;28;20078;-65
2021/08/12 14:48:12;;;;;;;6.57;5.85;;;;;;;;;;4964479;28;20062;-65
2021/08/12 14:50:57;;;;;;;7.93;6.00;;;;;;;;;;4970072;28;20504;-66
2021/08/12 14:53:43;;;;;;;7.63;5.97;;;;;;;;;;4973521;28;20050;-65
2021/08/12 14:56:28;;;;;;;6.88;5.40;;;;;;;;;;4970627;28;20567;-65
2021/08/12 14:59:13;;;;;;;7.43;5.53;;;;;;;;;;4971775;28;20077;-65
2021/08/12 15:01:59;;;;;;;7.90;5.80;;;;;;;;;;4971684;28;20053;-66
2021/08/12 15:04:45;;;;;;;7.72;5.68;;;;;;;;;;4973069;28;20401;-66
2021/08/12 15:07:32;;;;;;;7.35;5.32;;;;;;;;;;4973506;28;20138;-65
2021/08/12 15:10:17;;;;;;;8.38;5.57;;;;;;;;;;4972848;28;20509;-66
2021/08/12 15:13:02;;;;;;;8.20;5.30;;;;;;;;;;4971239;28;20061;-64
2021/08/12 15:15:48;;;;;;;6.03;5.00;;;;;;;;;;4999164;28;20043;-64
2021/08/12 15:18:33;;;;;;;9.73;6.07;;;;;;;;;;4973004;28;20509;-65
2021/08/12 15:21:18;;;;;;;7.03;5.18;;;;;;;;;;4972682;28;20159;-65
2021/08/12 15:24:04;;;;;;;8.82;4.88;;;;;;;;;;4972830;28;20146;-65
2021/08/12 15:26:54;;;;;;;8.88;4.90;;;;;;;;;;4973026;28;20053;-65
2021/08/12 15:29:40;;;;;;;5.68;4.40;;;;;;;;;;4973048;28;20057;-65
2021/08/12 15:32:25;;;;;;;8.38;5.75;;;;;;;;;;4972053;28;20062;-65
2021/08/12 15:35:11;;;;;;;5.32;4.72;;;;;;;;;;4972790;28;20054;-65
2021/08/12 15:37:56;;;;;;;7.80;5.07;;;;;;;;;;4973048;28;20050;-65
2021/08/12 15:40:41;;;;;;;7.63;4.70;;;;;;;;;;4965960;28;20036;-65
2021/08/12 15:43:26;;;;;;;5.13;4.53;;;;;;;;;;4971094;28;20071;-65
2021/08/12 15:46:12;;;;;;;7.78;4.40;;;;;;;;;;4956690;28;20513;-66
2021/08/12 15:48:58;;;;;;;6.72;4.47;;;;;;;;;;4969852;28;20054;-66
2021/08/12 15:51:43;;;;;;;5.90;4.97;;;;;;;;;;4958737;28;20545;-66
2021/08/12 15:54:28;;;;;;;7.57;4.25;;;;;;;;;;4972070;28;20186;-66
2021/08/12 15:57:14;;;;;;;5.30;3.53;;;;;;;;;;4972862;28;20050;-66
2021/08/12 15:59:59;;;;;;;7.88;4.35;;;;;;;;;;4972691;28;20648;-66
2021/08/12 16:02:44;;;;;;;5.30;3.60;;;;;;;;;;4969030;28;20049;-66
2021/08/12 16:05:30;;;;;;;6.03;4.13;;;;;;;;;;4969888;28;20511;-66
2021/08/12 16:08:16;;;;;;;5.72;3.65;;;;;;;;;;4968223;28;20055;-65
2021/08/12 16:11:01;;;;;;;5.65;4.05;;;;;;;;;;4965260;28;20110;-65
2021/08/12 16:13:47;;;;;;;6.43;3.80;;;;;;;;;;4968883;28;20063;-65
2021/08/12 16:16:35;;;;;;;5.22;4.10;;;;;;;;;;5017042;23;20126;-66
2021/08/12 16:19:21;;;;;;;5.78;3.55;;;;;;;;;;5034341;28;20052;-66